createdAt,value
2023-02-17T00:00:01.455Z,29.60
2023-02-17T00:03:03.583Z,29.70
2023-02-17T00:06:10.971Z,29.60
2023-02-17T00:09:12.972Z,29.30
2023-02-17T00:12:15.404Z,29.10
2023-02-17T00:15:19.773Z,29.50
2023-02-17T00:18:23.133Z,29.50
2023-02-17T00:21:27.885Z,29.60
2023-02-17T00:24:32.024Z,29.80
2023-02-17T00:27:34.029Z,29.70
2023-02-17T00:30:37.830Z,29.80
2023-02-17T00:33:39.817Z,29.90
2023-02-17T00:36:42.098Z,30.00
2023-02-17T00:39:46.828Z,29.70
2023-02-17T00:42:49.217Z,29.80
2023-02-17T00:45:51.671Z,29.50
2023-02-17T00:48:54.769Z,29.30
2023-02-17T00:52:01.060Z,29.70
2023-02-17T00:55:04.066Z,29.30
2023-02-17T00:58:06.099Z,29.40
2023-02-17T01:01:10.225Z,29.30
2023-02-17T01:04:13.032Z,29.50
2023-02-17T01:07:15.311Z,29.60
2023-02-17T01:10:17.578Z,29.70
2023-02-17T01:13:20.060Z,29.60
2023-02-17T01:16:24.034Z,29.40
2023-02-17T01:19:26.363Z,29.60
2023-02-17T01:22:28.473Z,29.50
2023-02-17T01:25:31.226Z,29.50
2023-02-17T01:28:33.333Z,29.70
2023-02-17T01:31:35.934Z,29.80
2023-02-17T01:34:38.352Z,29.80
2023-02-17T01:37:40.927Z,29.90
2023-02-17T01:40:49.859Z,29.80
2023-02-17T01:44:10.867Z,29.30
2023-02-17T01:47:13.171Z,29.60
2023-02-17T01:50:16.567Z,29.60
2023-02-17T01:53:26.022Z,29.60
2023-02-17T01:56:29.072Z,29.50
2023-02-17T01:59:32.045Z,29.30
2023-02-17T02:02:34.653Z,29.00
2023-02-17T02:05:38.653Z,29.20
2023-02-17T02:08:59.496Z,29.10
2023-02-17T02:12:02.340Z,29.30
2023-02-17T02:15:07.731Z,29.40
2023-02-17T02:18:12.528Z,29.40
2023-02-17T02:21:35.039Z,29.10
2023-02-17T02:24:40.111Z,29.50
2023-02-17T02:27:59.224Z,29.80
2023-02-17T02:31:09.849Z,30.00
2023-02-17T02:34:42.960Z,30.10
2023-02-17T02:37:56.282Z,30.00
2023-02-17T02:41:06.824Z,30.00
2023-02-17T02:44:12.711Z,30.00
2023-02-17T02:47:48.474Z,30.10
2023-02-17T02:51:05.638Z,29.80
2023-02-17T02:54:33.038Z,29.80
2023-02-17T02:57:55.665Z,29.90
2023-02-17T03:01:14.294Z,29.90
2023-02-17T03:04:36.445Z,29.90
2023-02-17T03:07:46.650Z,29.70
2023-02-17T03:10:54.270Z,29.60
2023-02-17T03:14:04.578Z,29.50
2023-02-17T03:17:06.549Z,29.40
2023-02-17T03:20:09.921Z,29.70
2023-02-17T03:23:11.974Z,29.90
2023-02-17T03:26:15.461Z,29.90
2023-02-17T03:29:17.493Z,29.50
2023-02-17T03:32:20.934Z,29.80
2023-02-17T03:35:22.982Z,29.60
2023-02-17T03:38:25.234Z,29.60
2023-02-17T03:41:27.538Z,30.00
2023-02-17T03:44:30.142Z,29.60
2023-02-17T03:47:32.441Z,29.30
2023-02-17T03:50:34.730Z,29.60
2023-02-17T03:53:36.727Z,29.60
2023-02-17T03:56:39.151Z,29.50
2023-02-17T03:59:41.154Z,29.40
2023-02-17T04:02:44.267Z,29.40
2023-02-17T04:05:46.450Z,29.40
2023-02-17T04:08:48.760Z,29.30
2023-02-17T04:11:50.857Z,29.50
2023-02-17T04:14:53.113Z,29.60
2023-02-17T04:17:55.344Z,29.80
2023-02-17T04:20:57.956Z,29.70
2023-02-17T04:24:04.180Z,29.60
2023-02-17T04:27:06.489Z,29.80
2023-02-17T04:30:11.988Z,29.90
2023-02-17T04:33:15.084Z,29.90
2023-02-17T04:36:17.128Z,30.00
2023-02-17T04:39:19.476Z,29.90
2023-02-17T04:42:21.539Z,30.00
2023-02-17T04:45:24.594Z,29.80
2023-02-17T04:48:26.985Z,29.70
2023-02-17T04:51:29.390Z,29.60
2023-02-17T04:54:31.405Z,29.30
2023-02-17T04:57:33.828Z,29.10
2023-02-17T05:00:36.743Z,29.10
2023-02-17T05:03:39.038Z,29.10
2023-02-17T05:06:41.008Z,29.40
2023-02-17T05:09:43.386Z,29.60
2023-02-17T05:12:45.760Z,29.40
2023-02-17T05:15:48.203Z,29.60
2023-02-17T05:18:50.268Z,29.60
2023-02-17T05:21:52.542Z,29.50
2023-02-17T05:24:54.680Z,29.60
2023-02-17T05:27:57.442Z,29.80
2023-02-17T05:31:01.501Z,29.70
2023-02-17T05:34:04.172Z,29.80
2023-02-17T05:37:06.159Z,29.60
2023-02-17T05:40:09.009Z,29.70
2023-02-17T05:43:11.034Z,29.80
2023-02-17T05:46:14.059Z,29.80
2023-02-17T05:49:16.135Z,30.00
2023-02-17T05:52:18.736Z,29.90
2023-02-17T05:55:22.632Z,29.80
2023-02-17T05:58:25.063Z,29.80
2023-02-17T06:01:27.954Z,29.40
2023-02-17T06:04:30.338Z,29.30
2023-02-17T06:07:32.346Z,29.30
2023-02-17T06:10:34.689Z,29.50
2023-02-17T06:13:36.924Z,29.50
2023-02-17T06:16:39.252Z,29.50
2023-02-17T06:19:41.259Z,29.30
2023-02-17T06:22:43.930Z,29.40
2023-02-17T06:25:46.274Z,29.30
2023-02-17T06:28:48.653Z,29.30
2023-02-17T06:31:50.815Z,29.30
2023-02-17T06:34:53.200Z,29.70
2023-02-17T06:37:55.221Z,29.60
2023-02-17T06:40:57.525Z,29.70
2023-02-17T06:43:59.502Z,29.60
2023-02-17T06:47:01.877Z,29.80
2023-02-17T06:50:04.384Z,29.80
2023-02-17T06:53:07.986Z,29.80
2023-02-17T06:56:09.999Z,29.80
2023-02-17T06:59:18.039Z,29.90
2023-02-17T07:02:20.511Z,29.90
2023-02-17T07:05:22.991Z,30.00
2023-02-17T07:08:25.582Z,29.70
2023-02-17T07:11:31.317Z,29.60
2023-02-17T07:14:34.952Z,29.60
2023-02-17T07:17:37.286Z,29.30
2023-02-17T07:20:39.483Z,29.50
2023-02-17T07:23:42.465Z,29.60
2023-02-17T07:26:44.529Z,29.80
2023-02-17T07:29:46.848Z,29.90
2023-02-17T07:32:48.868Z,29.90
2023-02-17T07:35:54.377Z,29.50
2023-02-17T07:38:58.160Z,29.80
2023-02-17T07:42:01.133Z,30.00
2023-02-17T07:45:03.507Z,29.80
2023-02-17T07:48:05.906Z,29.40
2023-02-17T07:51:13.446Z,29.60
2023-02-17T07:54:15.943Z,29.60
2023-02-17T07:57:18.043Z,28.70
2023-02-17T08:00:20.937Z,29.00
2023-02-17T08:03:22.987Z,29.20
2023-02-17T08:06:26.173Z,29.30
2023-02-17T08:09:46.791Z,29.70
2023-02-17T08:13:09.338Z,29.80
2023-02-17T08:16:11.372Z,29.80
2023-02-17T08:19:13.738Z,29.70
2023-02-17T08:22:17.288Z,29.40
2023-02-17T08:25:22.023Z,29.40
2023-02-17T08:28:24.093Z,29.90
2023-02-17T08:31:31.883Z,29.90
2023-02-17T08:34:34.173Z,30.10
2023-02-17T08:37:36.576Z,30.00
2023-02-17T08:40:40.035Z,30.00
2023-02-17T08:43:43.080Z,30.10
2023-02-17T08:46:48.233Z,30.00
2023-02-17T08:49:50.701Z,29.20
2023-02-17T08:52:52.766Z,29.20
2023-02-17T08:55:55.342Z,29.40
2023-02-17T08:58:57.464Z,29.80
2023-02-17T09:02:00.755Z,29.50
2023-02-17T09:05:03.700Z,29.60
2023-02-17T09:08:06.130Z,29.10
2023-02-17T09:11:21.335Z,29.20
2023-02-17T09:14:38.803Z,29.60
2023-02-17T09:17:41.592Z,29.50
2023-02-17T09:20:43.901Z,29.70
2023-02-17T09:23:46.465Z,29.70
2023-02-17T09:26:48.815Z,29.60
2023-02-17T09:29:50.819Z,29.70
2023-02-17T09:32:53.143Z,29.80
2023-02-17T09:35:56.159Z,30.00
2023-02-17T09:38:59.228Z,30.00
2023-02-17T09:42:01.684Z,30.20
2023-02-17T09:45:26.148Z,30.10
2023-02-17T09:48:33.008Z,30.30
2023-02-17T09:51:43.035Z,30.00
2023-02-17T09:55:13.688Z,30.00
2023-02-17T09:58:37.332Z,29.90
2023-02-17T10:01:42.029Z,29.80
2023-02-17T10:04:49.870Z,30.00
2023-02-17T10:08:00.527Z,30.40
2023-02-17T10:11:38.766Z,29.90
2023-02-17T10:14:56.732Z,30.10
2023-02-17T10:18:17.630Z,30.30
2023-02-17T10:21:32.852Z,30.40
2023-02-17T10:24:35.741Z,30.60
2023-02-17T10:27:46.196Z,30.90
2023-02-17T10:31:11.655Z,30.80
2023-02-17T10:34:31.984Z,30.70
2023-02-17T10:37:50.674Z,30.70
2023-02-17T10:40:55.506Z,30.80
2023-02-17T10:43:58.562Z,30.80
2023-02-17T10:47:00.619Z,31.10
2023-02-17T10:50:06.235Z,31.00
2023-02-17T10:53:21.394Z,30.60
2023-02-17T10:56:42.410Z,30.50
2023-02-17T10:59:46.238Z,30.70
2023-02-17T11:02:52.261Z,30.80
2023-02-17T11:06:00.375Z,30.60
2023-02-17T11:09:12.114Z,30.20
2023-02-17T11:12:28.478Z,30.20
2023-02-17T11:15:45.347Z,30.10
2023-02-17T11:18:49.774Z,29.80
2023-02-17T11:21:54.846Z,30.60
2023-02-17T11:25:03.811Z,29.70
2023-02-17T11:28:12.643Z,29.70
2023-02-17T11:31:30.954Z,30.00
2023-02-17T11:34:41.326Z,30.60
2023-02-17T11:37:43.902Z,30.30
2023-02-17T11:41:02.677Z,30.30
2023-02-17T11:44:06.145Z,29.20
2023-02-17T11:47:23.773Z,29.50
2023-02-17T11:50:52.708Z,29.60
2023-02-17T11:54:14.897Z,28.90
2023-02-17T11:57:40.980Z,30.10
2023-02-17T12:00:52.522Z,30.00
2023-02-17T12:04:21.466Z,30.40
2023-02-17T12:07:57.779Z,30.10
2023-02-17T12:11:17.718Z,30.40
2023-02-17T12:14:41.405Z,30.10
2023-02-17T12:18:01.460Z,29.80
2023-02-17T12:21:09.541Z,30.10
2023-02-17T12:24:42.785Z,30.00
2023-02-17T12:27:54.494Z,29.60
2023-02-17T12:31:11.396Z,29.10
2023-02-17T12:34:31.888Z,29.10
2023-02-17T12:37:48.411Z,29.00
2023-02-17T12:41:17.548Z,29.30
2023-02-17T12:44:26.335Z,29.40
2023-02-17T12:47:42.808Z,29.40
2023-02-17T12:51:08.216Z,29.40
2023-02-17T12:54:49.463Z,29.20
2023-02-17T12:57:59.740Z,29.00
2023-02-17T13:01:07.141Z,29.60
2023-02-17T13:04:17.050Z,29.60
2023-02-17T13:07:28.976Z,29.70
2023-02-17T13:10:35.247Z,30.00
2023-02-17T13:13:38.888Z,30.20
2023-02-17T13:16:48.812Z,30.00
2023-02-17T13:20:04.070Z,29.80
2023-02-17T13:23:11.021Z,29.80
2023-02-17T13:26:24.543Z,29.70
2023-02-17T13:29:34.559Z,29.70
2023-02-17T13:32:38.563Z,29.80
2023-02-17T13:35:43.724Z,29.90
2023-02-17T13:39:01.288Z,29.50
2023-02-17T13:42:04.677Z,29.10
2023-02-17T13:45:31.494Z,29.00
2023-02-17T13:48:38.606Z,29.30
2023-02-17T13:51:40.901Z,29.40
2023-02-17T13:54:56.439Z,29.40
2023-02-17T13:58:00.811Z,29.40
2023-02-17T14:01:09.529Z,28.80
2023-02-17T14:04:25.852Z,29.00
2023-02-17T14:07:37.602Z,28.40
2023-02-17T14:10:40.299Z,28.40
2023-02-17T14:13:45.938Z,28.90
2023-02-17T14:16:58.901Z,29.00
2023-02-17T14:20:01.126Z,28.70
2023-02-17T14:23:12.727Z,28.50
2023-02-17T14:26:36.902Z,28.80
2023-02-17T14:29:41.709Z,28.70
2023-02-17T14:32:46.925Z,28.80
2023-02-17T14:36:01.617Z,28.50
2023-02-17T14:39:09.504Z,29.40
2023-02-17T14:42:11.777Z,29.40
2023-02-17T14:45:15.338Z,29.40
2023-02-17T14:48:18.144Z,29.30
2023-02-17T14:51:24.020Z,29.20
2023-02-17T14:54:30.509Z,28.80
2023-02-17T14:57:33.750Z,29.00
2023-02-17T15:00:38.135Z,28.90
2023-02-17T15:06:56.663Z,29.10
2023-02-17T15:10:14.480Z,29.50
2023-02-17T15:13:21.888Z,29.30
2023-02-17T15:16:24.205Z,29.00
2023-02-17T15:19:26.603Z,29.30
2023-02-17T15:22:28.702Z,28.80
2023-02-17T15:25:35.191Z,28.40
2023-02-17T15:28:37.194Z,29.10
2023-02-17T15:31:39.681Z,29.80
2023-02-17T15:34:41.908Z,29.70
2023-02-17T15:37:44.799Z,29.70
2023-02-17T15:40:47.018Z,28.80
2023-02-17T15:43:51.152Z,28.80
2023-02-17T15:46:55.095Z,28.80
2023-02-17T15:49:57.647Z,28.70
2023-02-17T15:52:59.772Z,29.10
2023-02-17T15:56:02.433Z,28.70
2023-02-17T15:59:19.356Z,28.80
2023-02-17T16:02:24.312Z,29.20
2023-02-17T16:05:28.435Z,29.90
2023-02-17T16:08:30.741Z,29.70
2023-02-17T16:11:33.994Z,30.30
2023-02-17T16:14:38.160Z,30.50
2023-02-17T16:17:40.240Z,30.60
2023-02-17T16:20:42.640Z,30.50
2023-02-17T16:23:45.048Z,30.90
2023-02-17T16:26:48.035Z,31.10
2023-02-17T16:29:50.228Z,31.10
2023-02-17T16:32:52.552Z,31.40
2023-02-17T16:35:54.766Z,30.80
2023-02-17T16:38:57.309Z,30.70
2023-02-17T16:41:59.300Z,30.70
2023-02-17T16:45:01.674Z,30.80
2023-02-17T16:48:07.665Z,30.50
2023-02-17T16:51:09.950Z,30.60
2023-02-17T16:54:12.232Z,30.50
2023-02-17T16:57:20.374Z,30.60
2023-02-17T17:00:27.689Z,30.00
2023-02-17T17:03:29.992Z,30.70
2023-02-17T17:06:33.090Z,31.00
2023-02-17T17:09:35.369Z,30.60
2023-02-17T17:12:37.384Z,31.10
2023-02-17T17:15:43.036Z,31.30
2023-02-17T17:18:45.201Z,31.60
2023-02-17T17:21:48.103Z,31.50
2023-02-17T17:24:50.129Z,31.40
2023-02-17T17:27:52.952Z,31.50
2023-02-17T17:30:55.130Z,31.50
2023-02-17T17:33:57.526Z,31.50
2023-02-17T17:36:59.698Z,31.50
2023-02-17T17:40:02.065Z,31.70
2023-02-17T17:43:04.114Z,31.90
2023-02-17T17:46:30.625Z,31.80
2023-02-17T17:49:32.651Z,31.50
2023-02-17T17:52:35.115Z,31.40
2023-02-17T17:55:37.423Z,31.40
2023-02-17T17:58:39.682Z,31.70
2023-02-17T18:01:44.484Z,31.80
2023-02-17T18:04:47.869Z,31.70
2023-02-17T18:07:51.114Z,31.50
2023-02-17T18:10:53.575Z,31.50
2023-02-17T18:14:03.388Z,31.60
2023-02-17T18:17:06.502Z,31.70
2023-02-17T18:20:10.980Z,31.50
2023-02-17T18:23:13.416Z,31.60
2023-02-17T18:26:16.873Z,31.50
2023-02-17T18:29:19.753Z,31.60
2023-02-17T18:32:22.144Z,31.60
2023-02-17T18:35:24.622Z,31.70
2023-02-17T18:38:26.815Z,31.70
2023-02-17T18:41:34.891Z,31.80
2023-02-17T18:44:36.841Z,31.20
2023-02-17T18:47:39.127Z,31.30
2023-02-17T18:50:41.329Z,31.70
2023-02-17T18:53:43.609Z,31.70
2023-02-17T18:56:45.590Z,31.50
2023-02-17T18:59:48.038Z,31.60
2023-02-17T19:02:50.095Z,31.50
2023-02-17T19:05:52.478Z,31.40
2023-02-17T19:08:55.599Z,31.30
2023-02-17T19:11:57.944Z,31.10
2023-02-17T19:14:59.974Z,30.90
2023-02-17T19:18:02.313Z,30.50
2023-02-17T19:21:07.975Z,30.40
2023-02-17T19:24:14.573Z,30.60
2023-02-17T19:27:16.684Z,30.60
2023-02-17T19:30:19.137Z,30.90
2023-02-17T19:33:21.327Z,30.80
2023-02-17T19:36:23.695Z,30.60
2023-02-17T19:39:26.088Z,30.70
2023-02-17T19:42:28.393Z,30.80
2023-02-17T19:45:30.552Z,30.90
2023-02-17T19:48:34.377Z,30.90
2023-02-17T19:51:36.397Z,31.10
2023-02-17T19:54:38.649Z,30.90
2023-02-17T19:57:40.960Z,30.70
2023-02-17T20:00:43.562Z,29.50
2023-02-17T20:03:46.070Z,28.90
2023-02-17T20:06:48.368Z,28.70
2023-02-17T20:09:50.439Z,28.90
2023-02-17T20:12:52.713Z,28.40
2023-02-17T20:16:00.281Z,28.40
2023-02-17T20:19:03.888Z,28.00
2023-02-17T20:22:07.573Z,27.80
2023-02-17T20:25:09.970Z,28.10
2023-02-17T20:28:12.368Z,27.90
2023-02-17T20:31:14.974Z,27.70
2023-02-17T20:34:39.343Z,27.80
2023-02-17T20:37:41.701Z,27.80
2023-02-17T20:40:43.918Z,28.20
2023-02-17T20:43:46.349Z,27.80
2023-02-17T20:46:49.014Z,27.80
2023-02-17T20:49:51.468Z,28.10
2023-02-17T20:52:53.509Z,28.20
2023-02-17T20:55:55.844Z,28.20
2023-02-17T20:58:57.988Z,28.80
2023-02-17T21:02:00.293Z,29.30
2023-02-17T21:05:02.340Z,29.10
2023-02-17T21:08:04.791Z,29.10
2023-02-17T21:11:06.818Z,29.20
2023-02-17T21:14:09.500Z,29.10
2023-02-17T21:17:13.601Z,29.10
2023-02-17T21:20:19.138Z,29.20
2023-02-17T21:23:22.600Z,29.30
2023-02-17T21:26:25.542Z,28.70
2023-02-17T21:29:27.599Z,28.20
2023-02-17T21:32:29.906Z,28.20
2023-02-17T21:35:31.924Z,27.80
2023-02-17T21:38:34.225Z,27.70
2023-02-17T21:41:36.247Z,27.90
2023-02-17T21:44:53.768Z,27.70
2023-02-17T21:47:55.722Z,28.40
2023-02-17T21:51:05.963Z,28.50
2023-02-17T21:54:09.610Z,28.40
2023-02-17T21:57:11.982Z,28.40
2023-02-17T22:00:14.946Z,28.60
2023-02-17T22:03:17.702Z,28.70
2023-02-17T22:06:30.613Z,28.60
2023-02-17T22:09:33.640Z,28.10
2023-02-17T22:12:37.235Z,27.80
2023-02-17T22:15:39.613Z,28.30
2023-02-17T22:18:41.875Z,28.40
2023-02-17T22:21:45.221Z,28.40
2023-02-17T22:24:47.196Z,28.40
2023-02-17T22:27:49.441Z,28.40
2023-02-17T22:30:53.842Z,28.30
2023-02-17T22:33:59.710Z,28.40
2023-02-17T22:37:01.844Z,27.90
2023-02-17T22:40:06.774Z,28.00
2023-02-17T22:43:08.933Z,28.00
2023-02-17T22:46:12.132Z,27.80
2023-02-17T22:49:14.352Z,27.70
2023-02-17T22:52:16.582Z,27.70
2023-02-17T22:55:24.868Z,27.90
2023-02-17T22:58:27.686Z,27.90
2023-02-17T23:01:32.069Z,27.40
2023-02-17T23:04:34.416Z,27.10
2023-02-17T23:07:36.505Z,27.20
2023-02-17T23:10:43.340Z,27.50
2023-02-17T23:13:45.557Z,28.00
2023-02-17T23:16:47.965Z,28.10
2023-02-17T23:19:50.024Z,27.90
2023-02-17T23:22:52.387Z,27.80
2023-02-17T23:25:55.777Z,27.60
2023-02-17T23:28:58.010Z,27.50
2023-02-17T23:32:00.522Z,27.30
2023-02-17T23:35:04.189Z,27.40
2023-02-17T23:38:06.152Z,27.80
2023-02-17T23:41:08.428Z,28.10
2023-02-17T23:44:12.299Z,28.50
2023-02-17T23:47:14.635Z,28.60
2023-02-17T23:50:17.239Z,28.80
2023-02-17T23:53:19.572Z,28.70
2023-02-17T23:56:23.784Z,28.30
2023-02-17T23:59:26.112Z,28.00
